»·PEaware :: N791JR L88-KSBP

N791JR :: L88-KSBP

FLIGHT INFORMATION

Flight Status: Arrived
Operator: Privately registered:
United States
More flights under this callsign
Pilot: Davin Bennett (15694)
Aircraft: CESSNA 172 SKYHAWK
(C172)
More flights by this aircraft type
Origin: L88 New Cuyama
United States
Destination: KSBP San Luis Co Regl
United States
More flights between these airports :: More routes between these airports
Route: DCT
File this flight plan on PilotEdge
Remarks: CAT 02
Altitude:
(Current/Filed)
8,500ft
Speed:
(Current/Filed)
100kts
Departed: 14-Jun-17 03:39 PM
Arrived: 14-Jun-17 04:15 PM
Distance/Time
Traveled:
50nm/0:36
Distance/Time
To Go:
Arrived

Flight Plot

Page will automatically refresh every two minutes.


Map Options




Map Legend


Flown Route
Filed Route
Departure Airport
Arrival Airport
Navaid (VOR, NDB)
Fix

Horizontal Profiles

Position Reports

Time Latitude Longitude Heading Altitude Ground
Speed
14-Jun-17 15:29 34.943401 -119.690703 65 2185ft 0kts
14-Jun-17 15:30 34.943401 -119.690703 65 2185ft 0kts
14-Jun-17 15:31 34.943401 -119.690703 65 2185ft 0kts
14-Jun-17 15:32 34.943401 -119.690703 65 2185ft 0kts
14-Jun-17 15:33 34.943401 -119.690703 65 2185ft 0kts
14-Jun-17 15:34 34.943401 -119.690703 65 2185ft 0kts
14-Jun-17 15:35 34.943401 -119.690703 65 2185ft 0kts
14-Jun-17 15:36 34.943278 -119.690962 257 2184ft 8kts
14-Jun-17 15:37 34.943297 -119.691704 176 2179ft 0kts
14-Jun-17 15:38 34.942710 -119.691437 149 2185ft 2kts
14-Jun-17 15:39 34.939835 -119.685404 113 2206ft 24kts
14-Jun-17 15:40 34.937556 -119.679766 345 2206ft 5kts
14-Jun-17 15:41 34.940164 -119.685815 293 2274ft 71kts
14-Jun-17 15:42 34.950744 -119.707942 286 3098ft 77kts
14-Jun-17 15:43 34.961360 -119.731450 293 3929ft 78kts
14-Jun-17 15:44 34.971624 -119.753239 293 4755ft 74kts
14-Jun-17 15:45 34.976923 -119.778478 291 5396ft 83kts
14-Jun-17 15:46 34.988021 -119.802687 293 6092ft 81kts
14-Jun-17 15:47 34.999060 -119.826679 293 6773ft 82kts
14-Jun-17 15:48 35.010522 -119.851867 293 7378ft 87kts
14-Jun-17 15:49 35.017616 -119.879474 272 7968ft 86kts
14-Jun-17 15:50 35.020444 -119.908453 273 8488ft 92kts
14-Jun-17 15:51 35.023745 -119.942409 285 8494ft 104kts
14-Jun-17 15:52 35.033041 -119.975833 285 8499ft 105kts
14-Jun-17 15:53 35.042604 -120.007886 286 8499ft 105kts
14-Jun-17 15:54 35.052812 -120.041219 286 8504ft 105kts
14-Jun-17 15:55 35.063262 -120.075113 287 8506ft 107kts
14-Jun-17 15:56 35.073741 -120.109061 287 8509ft 107kts
14-Jun-17 15:57 35.084240 -120.143051 287 8511ft 106kts
14-Jun-17 15:58 35.094656 -120.176786 287 8305ft 102kts
14-Jun-17 15:59 35.104769 -120.209600 287 8003ft 104kts
14-Jun-17 16:00 35.114950 -120.242664 288 7670ft 106kts
14-Jun-17 16:01 35.124235 -120.277105 279 7262ft 107kts
14-Jun-17 16:02 35.129264 -120.312598 281 6858ft 106kts
14-Jun-17 16:03 35.137141 -120.345675 292 6437ft 98kts
14-Jun-17 16:04 35.149567 -120.375180 294 5953ft 96kts
14-Jun-17 16:05 35.161783 -120.403428 294 5452ft 94kts
14-Jun-17 16:06 35.172512 -120.431915 284 4952ft 88kts
14-Jun-17 16:07 35.178935 -120.460024 285 4386ft 84kts
14-Jun-17 16:08 35.183316 -120.486787 281 3769ft 82kts
14-Jun-17 16:09 35.186487 -120.513997 280 2891ft 76kts
14-Jun-17 16:10 35.188525 -120.538366 283 2102ft 71kts
14-Jun-17 16:11 35.192572 -120.559990 297 1525ft 59kts
14-Jun-17 16:12 35.200512 -120.576519 306 1382ft 57kts
14-Jun-17 16:13 35.209869 -120.593009 306 1077ft 56kts
14-Jun-17 16:14 35.217381 -120.606265 306 782ft 49kts
14-Jun-17 16:15 35.224906 -120.619291 305 491ft 50kts
14-Jun-17 16:16 35.232411 -120.632422 307 249ft 44kts
14-Jun-17 16:17 35.236019 -120.638693 306 214ft 16kts
14-Jun-17 16:18 35.237519 -120.639910 359 214ft 0kts
14-Jun-17 16:19 35.237626 -120.639927 344 214ft 0kts
14-Jun-17 16:20 35.238503 -120.641355 304 214ft 8kts
14-Jun-17 16:21 35.239556 -120.642362 81 214ft 3kts
14-Jun-17 16:22 35.239612 -120.642221 297 214ft 0kts
14-Jun-17 16:23 35.239612 -120.642221 297 214ft 0kts
14-Jun-17 16:24 35.239612 -120.642221 297 214ft 0kts
14-Jun-17 16:25 35.239612 -120.642221 297 214ft 0kts
14-Jun-17 16:26 35.239612 -120.642221 297 214ft 0kts
14-Jun-17 16:27 35.239612 -120.642221 297 214ft 0kts
14-Jun-17 16:28 35.239612 -120.642221 297 214ft 0kts

Navigation Log

Ident Type
1. L88 Airport
2. KSBP Airport